EmailTwitter


Observations de surface / France / LFBO (07630)

Régions: Québec | Canada | États-Unis | Europe | France | UK | Ailleurs
Station
Affichage
Infos & localisation pour LFBO (07630) | Aide pour décoder les METARs

Observations prises le 2020-01-29 à 17H00 UTC à TOULOUSE/BLAGNAC, FR (LFBO)

Etat du ciel: partiellement nuageux.

Température: 12.0 Celsius

Point de rosée: 6.0 Celsius

Humidité relative: 67%

Vents: Nord-est à 6 km/h ou 3 noeuds.

Pression au niveau moyen de la mer: 102.00 kilopascals.

Visibilité horizontale: 6.21 milles terrestres ou 9.94 kilomètres.

Hauteur du plafond: 1097 mètres ( 3600 pieds ).

Observation METAR:

LFBO 291700Z AUTO 04003KT 9999 FEW020 BKN036 BKN190 12/06 Q1020 NOSIG=